Terminal Aerodrome Forecast
Issued by NWS

Home | Current Version | Previous Version | Text Only | Print | Product List | Glossary On
Versions: 1 2 3 4 5 6 7 8 9 10 11 12 13 14 15 16 17 18
000
FTUS43 KIND 230812 AAA
TAFBMG
TAF AMD
KBMG 230812Z 2308/2406 10006KT P6SM SCT100 BKN250
     FM231600 13009KT P6SM BKN200
     FM232000 16007KT P6SM BKN100
      AMD LTD TO CLD VIS AND WIND TIL 231300=

USA.gov is the U.S. government's official web portal to all federal, state and local government web resources and services.